createdAt,value
2023-04-01T00:01:27.602Z,98977.84
2023-04-01T00:04:30.264Z,98976.84
2023-04-01T00:07:33.991Z,98973.16
2023-04-01T00:10:36.624Z,98972.13
2023-04-01T00:13:38.873Z,98985.31
2023-04-01T00:16:41.605Z,98981.56
2023-04-01T00:19:44.662Z,98982.69
2023-04-01T00:22:47.557Z,98973.75
2023-04-01T00:25:50.574Z,98969.41
2023-04-01T00:28:53.612Z,98939.91
2023-04-01T00:31:57.376Z,98968.25
2023-04-01T00:35:02.737Z,98952.59
2023-04-01T00:38:05.745Z,98969.69
2023-04-01T00:41:08.891Z,98952.06
2023-04-01T00:44:23.375Z,98947.44
2023-04-01T00:47:27.964Z,98962.03
2023-04-01T00:50:32.839Z,98965.66
2023-04-01T00:53:39.713Z,98958.72
2023-04-01T00:56:57.279Z,98958.13
2023-04-01T01:00:00.832Z,98956.37
2023-04-01T01:03:03.905Z,98923.22
2023-04-01T01:06:12.322Z,98949.25
2023-04-01T01:09:31.498Z,98946.63
2023-04-01T01:12:40.425Z,98894.75
2023-04-01T01:15:51.011Z,98945.28
2023-04-01T01:19:06.891Z,98945.41
2023-04-01T01:22:35.207Z,98918.50
2023-04-01T01:26:09.096Z,98917.75
2023-04-01T01:29:32.458Z,98946.69
2023-04-01T01:33:04.967Z,98942.41
2023-04-01T01:36:13.314Z,98917.06
2023-04-01T01:39:17.001Z,98938.25
2023-04-01T01:42:21.684Z,98918.00
2023-04-01T01:45:27.541Z,98937.19
2023-04-01T01:48:31.500Z,98932.09
2023-04-01T01:51:35.280Z,98911.87
2023-04-01T01:54:51.822Z,98931.72
2023-04-01T01:57:59.208Z,98910.28
2023-04-01T02:01:07.012Z,98936.88
2023-04-01T02:04:12.150Z,98934.97
2023-04-01T02:07:21.192Z,98931.44
2023-04-01T02:10:28.104Z,98911.97
2023-04-01T02:13:53.834Z,98934.22
2023-04-01T02:17:01.353Z,98931.91
2023-04-01T02:20:09.912Z,98928.78
2023-04-01T02:23:13.607Z,98932.34
2023-04-01T02:26:17.120Z,98933.47
2023-04-01T02:29:23.009Z,98891.94
2023-04-01T02:32:27.962Z,98897.84
2023-04-01T02:35:31.293Z,98917.38
2023-04-01T02:38:36.873Z,98892.41
2023-04-01T02:41:41.690Z,98886.91
2023-04-01T02:44:44.006Z,98903.59
2023-04-01T02:47:46.673Z,98890.91
2023-04-01T02:50:49.089Z,98916.91
2023-04-01T02:53:51.722Z,98914.53
2023-04-01T02:56:54.108Z,98875.53
2023-04-01T02:59:56.878Z,98887.09
2023-04-01T03:02:59.418Z,98912.84
2023-04-01T03:06:10.270Z,98895.28
2023-04-01T03:09:12.560Z,98921.41
2023-04-01T03:12:15.522Z,98919.06
2023-04-01T03:15:19.008Z,98895.25
2023-04-01T03:18:21.633Z,98889.69
2023-04-01T03:21:25.321Z,98884.84
2023-04-01T03:24:27.922Z,98879.34
2023-04-01T03:27:30.332Z,98907.47
2023-04-01T03:30:33.079Z,98905.41
2023-04-01T03:33:36.020Z,98915.19
2023-04-01T03:36:38.765Z,98924.25
2023-04-01T03:39:42.496Z,98925.81
2023-04-01T03:42:46.274Z,98900.38
2023-04-01T03:45:51.281Z,98940.75
2023-04-01T03:48:53.953Z,98938.44
2023-04-01T03:51:56.269Z,98922.09
2023-04-01T03:54:58.930Z,98947.41
2023-04-01T03:58:03.060Z,98942.66
2023-04-01T04:01:15.581Z,98948.59
2023-04-01T04:04:18.796Z,98919.22
2023-04-01T04:07:21.524Z,98942.88
2023-04-01T04:10:27.129Z,98947.72
2023-04-01T04:13:29.437Z,98954.75
2023-04-01T04:16:32.625Z,98949.19
2023-04-01T04:19:35.235Z,98931.69
2023-04-01T04:22:38.077Z,98949.19
2023-04-01T04:25:40.884Z,98939.28
2023-04-01T04:28:43.716Z,98925.34
2023-04-01T04:31:46.728Z,98949.91
2023-04-01T04:34:49.372Z,98927.66
2023-04-01T04:37:51.971Z,98924.47
2023-04-01T04:40:55.329Z,98933.37
2023-04-01T04:43:59.538Z,98927.78
2023-04-01T04:47:02.696Z,98943.25
2023-04-01T04:50:05.751Z,98945.28
2023-04-01T04:53:11.579Z,98912.81
2023-04-01T04:56:14.266Z,98914.47
2023-04-01T04:59:18.026Z,98928.78
2023-04-01T05:02:21.284Z,98931.94
2023-04-01T05:05:24.173Z,98914.47
2023-04-01T05:08:26.517Z,98918.81
2023-04-01T05:11:29.154Z,98937.53
2023-04-01T05:14:31.790Z,98913.00
2023-04-01T05:17:35.391Z,98934.47
2023-04-01T05:20:38.779Z,98936.09
2023-04-01T05:23:42.266Z,98917.88
2023-04-01T05:26:44.661Z,98939.81
2023-04-01T05:29:47.634Z,98918.84
2023-04-01T05:32:50.626Z,98933.47
2023-04-01T05:35:53.993Z,98949.50
2023-04-01T05:38:57.403Z,98956.25
2023-04-01T05:42:01.340Z,98957.53
2023-04-01T05:45:04.170Z,98954.09
2023-04-01T05:48:07.809Z,98963.28
2023-04-01T05:51:14.925Z,98946.41
2023-04-01T05:54:18.173Z,98930.31
2023-04-01T05:57:21.130Z,98947.50
2023-04-01T06:00:24.185Z,98947.59
2023-04-01T06:03:27.350Z,98924.69
2023-04-01T06:06:32.907Z,98924.00
2023-04-01T06:09:36.147Z,98951.06
2023-04-01T06:12:46.799Z,98949.13
2023-04-01T06:16:08.145Z,98955.91
2023-04-01T06:19:27.542Z,98965.44
2023-04-01T06:22:52.494Z,98937.34
2023-04-01T06:26:12.033Z,98949.81
2023-04-01T06:29:23.922Z,98930.00
2023-04-01T06:32:29.162Z,98951.91
2023-04-01T06:35:41.099Z,98961.84
2023-04-01T06:38:53.786Z,98964.31
2023-04-01T06:42:16.861Z,98948.91
2023-04-01T06:45:25.251Z,98938.28
2023-04-01T06:48:54.585Z,98978.72
2023-04-01T06:52:14.963Z,98965.37
2023-04-01T06:55:34.459Z,98942.06
2023-04-01T06:58:55.814Z,98970.75
2023-04-01T07:02:05.260Z,98976.81
2023-04-01T07:05:08.399Z,98943.63
2023-04-01T07:08:16.041Z,98969.84
2023-04-01T07:11:27.949Z,98973.44
2023-04-01T07:14:42.522Z,98929.53
2023-04-01T07:17:48.347Z,98975.62
2023-04-01T07:20:52.882Z,98952.69
2023-04-01T07:24:01.489Z,98968.62
2023-04-01T07:27:10.876Z,98946.91
2023-04-01T07:30:19.203Z,98954.91
2023-04-01T07:33:38.385Z,98949.84
2023-04-01T07:36:40.938Z,98979.22
2023-04-01T07:40:15.756Z,98949.97
2023-04-01T07:43:50.412Z,98986.06
2023-04-01T07:47:30.991Z,98979.31
2023-04-01T07:50:43.029Z,98983.31
2023-04-01T07:53:49.805Z,98971.41
2023-04-01T07:57:16.272Z,98984.84
2023-04-01T08:00:39.595Z,98990.72
2023-04-01T08:03:55.167Z,98983.12
2023-04-01T08:07:11.400Z,98979.81
2023-04-01T08:10:30.563Z,98975.81
2023-04-01T08:13:49.843Z,98990.84
2023-04-01T08:17:10.811Z,98988.31
2023-04-01T08:20:27.328Z,98970.03
2023-04-01T08:23:34.929Z,98993.34
2023-04-01T08:26:42.304Z,98984.50
2023-04-01T08:30:03.572Z,98986.59
2023-04-01T08:33:09.441Z,98994.41
2023-04-01T08:36:21.354Z,98992.97
2023-04-01T08:39:37.580Z,98983.09
2023-04-01T08:42:43.297Z,98971.59
2023-04-01T08:45:57.836Z,98981.34
2023-04-01T08:49:22.018Z,98962.75
2023-04-01T08:52:41.989Z,98978.97
2023-04-01T08:56:26.065Z,98981.28
2023-04-01T08:59:51.330Z,98988.31
2023-04-01T09:03:28.605Z,98971.94
2023-04-01T09:07:01.837Z,98995.34
2023-04-01T09:10:35.346Z,98971.81
2023-04-01T09:13:48.823Z,98985.66
2023-04-01T09:16:54.476Z,98987.06
2023-04-01T09:20:27.685Z,98988.06
2023-04-01T09:23:38.738Z,98985.81
2023-04-01T09:27:05.833Z,98984.53
2023-04-01T09:30:40.634Z,98992.78
2023-04-01T09:33:48.974Z,98991.00
2023-04-01T09:37:11.317Z,98987.81
2023-04-01T09:40:19.979Z,98988.03
2023-04-01T09:43:28.963Z,98975.31
2023-04-01T09:46:53.028Z,98969.63
2023-04-01T09:50:16.395Z,98987.97
2023-04-01T09:53:22.315Z,98978.50
2023-04-01T09:56:32.039Z,98991.19
2023-04-01T09:59:55.244Z,99000.72
2023-04-01T10:03:30.618Z,99007.09
2023-04-01T10:06:48.806Z,99009.84
2023-04-01T10:10:35.529Z,98997.56
2023-04-01T10:13:50.966Z,99001.50
2023-04-01T10:17:08.553Z,99010.59
2023-04-01T10:20:29.548Z,99010.59
2023-04-01T10:24:09.683Z,99011.81
2023-04-01T10:28:06.465Z,99007.06
2023-04-01T10:31:43.699Z,98999.94
2023-04-01T10:34:55.787Z,98990.44
2023-04-01T10:38:28.468Z,99005.91
2023-04-01T10:41:53.235Z,99011.84
2023-04-01T10:45:11.533Z,99003.13
2023-04-01T10:48:23.855Z,99006.25
2023-04-01T10:51:56.883Z,98978.13
2023-04-01T10:55:44.237Z,98999.53
2023-04-01T10:59:29.382Z,98994.78
2023-04-01T11:03:07.715Z,98991.97
2023-04-01T11:06:22.922Z,98995.06
2023-04-01T11:10:03.614Z,98989.56
2023-04-01T11:13:09.698Z,98978.06
2023-04-01T11:16:17.213Z,98981.66
2023-04-01T11:19:58.872Z,98982.44
2023-04-01T11:23:26.482Z,98974.00
2023-04-01T11:26:53.753Z,98981.56
2023-04-01T11:30:34.012Z,98975.62
2023-04-01T11:33:48.676Z,98957.78
2023-04-01T11:37:25.716Z,98983.34
2023-04-01T11:40:48.718Z,98976.03
2023-04-01T11:51:03.713Z,99002.63
2023-04-01T11:54:37.873Z,99005.47
2023-04-01T11:57:53.769Z,99005.91
2023-04-01T12:01:14.952Z,99002.28
2023-04-01T12:04:55.763Z,98980.88
2023-04-01T12:08:30.447Z,99003.06
2023-04-01T12:11:48.926Z,98997.50
2023-04-01T12:15:24.818Z,98980.88
2023-04-01T12:18:34.890Z,98999.12
2023-04-01T12:21:55.659Z,99003.50
2023-04-01T12:25:29.274Z,98999.97
2023-04-01T12:29:05.828Z,98992.00
2023-04-01T12:32:44.512Z,98990.81
2023-04-01T12:36:11.984Z,98997.16
2023-04-01T12:39:49.091Z,98988.00
2023-04-01T12:43:29.025Z,99001.87
2023-04-01T12:46:48.231Z,99001.87
2023-04-01T12:50:15.976Z,98993.53
2023-04-01T12:53:49.234Z,98996.28
2023-04-01T12:57:03.483Z,98985.50
2023-04-01T13:00:28.107Z,98997.25
2023-04-01T13:03:41.906Z,98983.72
2023-04-01T13:06:58.711Z,98989.22
2023-04-01T13:10:29.706Z,98978.50
2023-04-01T13:14:06.644Z,98981.94
2023-04-01T13:17:51.403Z,98975.53
2023-04-01T13:20:53.919Z,98973.47
2023-04-01T13:24:19.423Z,98982.34
2023-04-01T13:27:50.847Z,98960.59
2023-04-01T13:31:14.756Z,98986.34
2023-04-01T13:34:23.425Z,98984.50
2023-04-01T13:37:36.105Z,98982.09
2023-04-01T13:41:04.170Z,98977.53
2023-04-01T13:44:16.501Z,98992.63
2023-04-01T13:47:24.988Z,98997.84
2023-04-01T13:50:32.594Z,98993.59
2023-04-01T13:53:48.044Z,98968.00
2023-04-01T13:57:05.616Z,98976.34
2023-04-01T14:00:36.165Z,99004.00
2023-04-01T14:03:51.412Z,99003.59
2023-04-01T14:07:15.742Z,99003.50
2023-04-01T14:11:10.852Z,98996.13
2023-04-01T14:14:18.927Z,99009.97
2023-04-01T14:17:33.775Z,98998.34
2023-04-01T14:21:00.315Z,99001.31
2023-04-01T14:24:05.854Z,98993.88
2023-04-01T14:27:32.669Z,98994.87
2023-04-01T14:30:52.898Z,98995.00
2023-04-01T14:34:01.237Z,98995.81
2023-04-01T14:37:22.763Z,98985.47
2023-04-01T14:40:52.319Z,98987.09
2023-04-01T14:44:18.394Z,98990.66
2023-04-01T14:47:49.309Z,98983.09
2023-04-01T14:50:55.617Z,98959.31
2023-04-01T14:54:04.627Z,98979.91
2023-04-01T14:57:17.620Z,98980.31
2023-04-01T15:00:20.605Z,98984.31
2023-04-01T15:03:48.991Z,98960.91
2023-04-01T15:07:03.350Z,98978.31
2023-04-01T15:10:36.869Z,98987.09
2023-04-01T15:14:04.221Z,98985.47
2023-04-01T15:17:28.913Z,98985.91
2023-04-01T15:20:44.948Z,98966.53
2023-04-01T15:23:50.474Z,98991.12
2023-04-01T15:26:59.533Z,98995.91
2023-04-01T15:30:20.342Z,98991.16
2023-04-01T15:33:50.033Z,99010.19
2023-04-01T15:37:14.673Z,99001.87
2023-04-01T15:40:16.820Z,99002.25
2023-04-01T15:43:28.439Z,98999.47
2023-04-01T15:46:42.995Z,99001.06
2023-04-01T15:49:54.021Z,98994.75
2023-04-01T15:53:14.727Z,98986.03
2023-04-01T15:56:45.825Z,99007.44
2023-04-01T16:00:13.177Z,99007.84
2023-04-01T16:03:44.137Z,99011.81
2023-04-01T16:07:04.939Z,99016.56
2023-04-01T16:10:32.969Z,99019.34
2023-04-01T16:14:14.840Z,98999.16
2023-04-01T16:17:28.614Z,99026.91
2023-04-01T16:20:52.270Z,99033.22
2023-04-01T16:24:00.638Z,99026.91
2023-04-01T16:27:11.602Z,99036.00
2023-04-01T16:30:41.709Z,99012.59
2023-04-01T16:34:09.711Z,99039.56
2023-04-01T16:37:14.527Z,99037.19
2023-04-01T16:40:48.113Z,99033.97
2023-04-01T16:43:55.558Z,99043.09
2023-04-01T16:47:07.180Z,99033.19
2023-04-01T16:50:28.997Z,99013.38
2023-04-01T16:53:44.097Z,99046.22
2023-04-01T16:56:56.216Z,99041.47
2023-04-01T17:00:31.337Z,99033.13
2023-04-01T17:03:40.762Z,99056.06
2023-04-01T17:07:08.321Z,99027.50
2023-04-01T17:10:44.419Z,99052.06
2023-04-01T17:14:04.918Z,99056.00
2023-04-01T17:17:25.796Z,99059.12
2023-04-01T17:20:48.780Z,99057.13
2023-04-01T17:24:10.503Z,99045.94
2023-04-01T17:27:36.753Z,99042.75
2023-04-01T17:31:07.355Z,99067.69
2023-04-01T17:34:51.899Z,99066.47
2023-04-01T17:38:22.236Z,99075.94
2023-04-01T17:41:49.514Z,99079.84
2023-04-01T17:45:02.779Z,99080.97
2023-04-01T17:48:24.017Z,99058.75
2023-04-01T17:51:33.889Z,99078.53
2023-04-01T17:54:54.535Z,99087.22
2023-04-01T17:58:21.193Z,99070.87
2023-04-01T18:01:58.237Z,99070.06
2023-04-01T18:05:09.817Z,99107.66
2023-04-01T18:08:40.681Z,99112.34
2023-04-01T18:12:07.554Z,99111.53
2023-04-01T18:15:32.594Z,99111.50
2023-04-01T18:18:57.238Z,99128.84
2023-04-01T18:22:17.317Z,99124.87
2023-04-01T18:25:27.862Z,99135.09
2023-04-01T18:28:43.422Z,99126.41
2023-04-01T18:31:52.407Z,99117.63
2023-04-01T18:35:15.502Z,99128.69
2023-04-01T18:38:32.899Z,99135.81
2023-04-01T18:41:50.517Z,99121.44
2023-04-01T18:45:29.933Z,99126.13
2023-04-01T18:48:50.513Z,99145.22
2023-04-01T18:52:17.899Z,99158.97
2023-04-01T18:55:45.410Z,99152.25
2023-04-01T18:59:01.718Z,99138.63
2023-04-01T19:02:29.892Z,99144.91
2023-04-01T19:05:35.581Z,99160.38
2023-04-01T19:08:41.851Z,99167.09
2023-04-01T19:12:23.222Z,99160.72
2023-04-01T19:15:30.542Z,99164.69
2023-04-01T19:19:06.268Z,99169.34
2023-04-01T19:22:37.024Z,99161.44
2023-04-01T19:26:05.412Z,99158.25
2023-04-01T19:29:21.609Z,99153.47
2023-04-01T19:32:48.043Z,99166.94
2023-04-01T19:36:29.944Z,99173.19
2023-04-01T19:40:03.413Z,99172.34
2023-04-01T19:43:30.026Z,99146.06
2023-04-01T19:46:45.457Z,99155.91
2023-04-01T19:49:53.612Z,99161.41
2023-04-01T19:53:05.456Z,99192.72
2023-04-01T19:56:27.191Z,99170.44
2023-04-01T19:59:42.648Z,99165.25
2023-04-01T20:03:02.452Z,99170.37
2023-04-01T20:06:39.291Z,99166.44
2023-04-01T20:10:15.095Z,99198.13
2023-04-01T20:13:54.867Z,99198.09
2023-04-01T20:17:22.104Z,99178.13
2023-04-01T20:20:30.401Z,99187.69
2023-04-01T20:23:51.590Z,99188.88
2023-04-01T20:27:14.465Z,99198.72
2023-04-01T20:30:31.950Z,99185.25
2023-04-01T20:33:34.896Z,99189.59
2023-04-01T20:37:05.136Z,99191.63
2023-04-01T20:40:31.350Z,99193.94
2023-04-01T20:43:52.030Z,99186.09
2023-04-01T20:47:01.886Z,99194.38
2023-04-01T20:50:31.698Z,99198.72
2023-04-01T20:54:10.800Z,99202.66
2023-04-01T20:57:29.562Z,99202.66
2023-04-01T21:00:56.659Z,99214.81
2023-04-01T21:04:27.130Z,99222.25
2023-04-01T21:07:39.999Z,99221.41
2023-04-01T21:11:11.350Z,99223.69
2023-04-01T21:14:48.805Z,99218.97
2023-04-01T21:18:09.775Z,99232.69
2023-04-01T21:21:15.376Z,99225.16
2023-04-01T21:24:32.658Z,99234.62
2023-04-01T21:28:12.456Z,99233.75
2023-04-01T21:31:17.456Z,99225.06
2023-04-01T21:34:53.189Z,99237.25
2023-04-01T21:38:13.292Z,99234.06
2023-04-01T21:41:48.578Z,99235.22
2023-04-01T21:45:09.846Z,99248.50
2023-04-01T21:48:54.757Z,99249.16
2023-04-01T21:52:08.888Z,99242.81
2023-04-01T21:55:33.421Z,99247.53
2023-04-01T21:58:54.431Z,99241.94
2023-04-01T22:02:03.733Z,99241.88
2023-04-01T22:05:32.085Z,99248.91
2023-04-01T22:08:42.938Z,99246.13
2023-04-01T22:12:19.204Z,99232.50
2023-04-01T22:16:03.628Z,99252.00
2023-04-01T22:19:39.047Z,99258.22
2023-04-01T22:23:14.010Z,99238.19
2023-04-01T22:26:25.825Z,99237.31
2023-04-01T22:29:55.342Z,99266.00
2023-04-01T22:33:17.649Z,99261.59
2023-04-01T22:37:02.076Z,99261.22
2023-04-01T22:40:25.992Z,99260.31
2023-04-01T22:43:48.521Z,99271.34
2023-04-01T22:47:02.136Z,99251.75
2023-04-01T22:50:22.009Z,99259.72
2023-04-01T22:53:42.631Z,99285.19
2023-04-01T22:56:52.813Z,99280.81
2023-04-01T23:00:02.250Z,99262.88
2023-04-01T23:03:07.471Z,99283.87
2023-04-01T23:06:19.895Z,99301.88
2023-04-01T23:09:27.057Z,99297.09
2023-04-01T23:12:31.545Z,99275.53
2023-04-01T23:15:35.951Z,99301.03
2023-04-01T23:18:48.053Z,99281.00
2023-04-01T23:22:14.623Z,99310.81
2023-04-01T23:25:35.808Z,99309.22
2023-04-01T23:28:46.399Z,99309.56
2023-04-01T23:31:57.356Z,99315.81
2023-04-01T23:35:01.302Z,99276.84
2023-04-01T23:38:03.979Z,99283.87
2023-04-01T23:41:07.463Z,99307.75
2023-04-01T23:44:13.890Z,99283.72
2023-04-01T23:47:23.562Z,99287.66
2023-04-01T23:50:29.220Z,99304.69
2023-04-01T23:53:35.279Z,99320.13
2023-04-01T23:56:54.643Z,99333.19
